メインページ
METAR-TAF:

METAR-TAF

空港 :

ズヴァルトノッツ国際空港

エレバン, アルメニア

緯度: 40-08-50N, 経度: 044-23-45E, 海抜: 865m

現時点の気象観測

当レポートは49分前の17:30(UTC)に作成
北/北東の風 3kt
気温 0°C
湿度 74%
気圧 1029 hPa
視程: 3500m

METAR: UDYZ 171730Z 03003KT 3500 BR NSC 00/M04 Q1029 R09/010070 NOSIG

時間: 22:19 (18:19 UTC)

予報

当レポートは1時間11分前の17:08(UTC)に作成
予報は17日の 18時(UTC)から 18日の 18時(UTC)まで有効
変向風 4kt
視程: 3500m

TAF: UDYZ 171708Z 1718/1818 VRB04KT 3500 BR NSC

4,000以上の空港の気象観測と天気予報(METAR報とTAF報)

利用可能な観測所は地図上に黄色い丸と赤い丸で示す。

丸の上にカーソルを重ねると観測所名を参照できる。

次にクリックすると気象観測と天気予報を参照できる。

マップの切り替え:黒色「×」印の緑ボタンをクリックして拡大、「-」印の緑ボタンをクリックして縮小、緑色の三角印をクリックして隣りの地図に切り替え


METAR-TAF: